Time;durP1;ratioP1;P1;durP2;ratioP2;P2;SDS_P1;SDS_P2;PMS_P1;PMS_P2;Temp;Humidity;BMP_temperature;BMP_pressure;BME280_temperature;BME280_humidity;BME280_pressure;Samples;Min_cycle;Max_cycle;Signal;HPM_P1;HPM_P2
2021/10/17 00:00:21;;;;;;;6.17;2.30;;;7.10;99.90;;;;;;4984536;28;20600;-95
2021/10/17 00:02:49;;;;;;;6.30;2.70;;;7.00;99.90;;;;;;4968260;28;20604;-95
2021/10/17 00:05:17;;;;;;;9.97;2.30;;;7.00;99.90;;;;;;4968344;28;20189;-95
2021/10/17 00:07:43;;;;;;;7.23;3.13;;;6.90;99.90;;;;;;4968084;28;20189;-95
2021/10/17 00:10:12;;;;;;;10.87;3.20;;;6.90;99.90;;;;;;4962703;28;20180;-95
2021/10/17 00:12:39;;;;;;;6.63;2.80;;;6.80;99.90;;;;;;4962542;28;20193;-96
2021/10/17 00:15:07;;;;;;;5.97;3.00;;;6.80;99.90;;;;;;4962957;28;20239;-95
2021/10/17 00:17:33;;;;;;;11.33;3.30;;;6.80;99.90;;;;;;4961614;28;20207;-96
2021/10/17 00:20:00;;;;;;;6.67;3.10;;;6.80;99.90;;;;;;4947195;28;20616;-95
2021/10/17 00:22:26;;;;;;;8.90;3.97;;;6.90;99.90;;;;;;4963632;28;20185;-94
2021/10/17 00:24:52;;;;;;;8.93;3.03;;;6.80;99.90;;;;;;4962404;28;20181;-95
2021/10/17 00:27:17;;;;;;;6.57;3.40;;;6.80;99.90;;;;;;4963312;28;20348;-95
2021/10/17 00:29:43;;;;;;;6.70;3.10;;;6.80;99.90;;;;;;4963869;28;20200;-96
2021/10/17 00:32:10;;;;;;;9.07;3.60;;;6.80;99.90;;;;;;4964317;28;20268;-95
2021/10/17 00:34:39;;;;;;;8.23;3.63;;;6.70;99.90;;;;;;4964342;28;20208;-95
2021/10/17 00:37:06;;;;;;;6.97;3.23;;;6.80;99.90;;;;;;4965742;28;20176;-95
2021/10/17 00:39:33;;;;;;;9.90;3.60;;;6.80;99.90;;;;;;4956251;28;20184;-95
2021/10/17 00:42:02;;;;;;;5.83;3.27;;;6.80;99.90;;;;;;4965537;28;20624;-95
2021/10/17 00:44:28;;;;;;;10.23;4.20;;;6.80;99.90;;;;;;4972825;28;20183;-95
2021/10/17 00:46:55;;;;;;;7.03;3.10;;;6.80;99.90;;;;;;4972585;28;20267;-95
2021/10/17 00:49:21;;;;;;;8.87;3.40;;;6.80;99.90;;;;;;4975204;28;20184;-94
2021/10/17 00:51:47;;;;;;;6.80;3.30;;;6.90;99.90;;;;;;4974284;28;20239;-95
2021/10/17 00:54:15;;;;;;;8.17;3.43;;;6.80;99.90;;;;;;4957883;28;20302;-95
2021/10/17 00:56:43;;;;;;;10.03;3.30;;;6.90;99.90;;;;;;4973857;28;20177;-94
2021/10/17 00:59:10;;;;;;;8.70;3.13;;;6.90;99.90;;;;;;4990512;28;20185;-95
2021/10/17 01:01:37;;;;;;;7.77;3.30;;;6.90;99.90;;;;;;4977950;28;20303;-95
2021/10/17 01:04:03;;;;;;;5.60;3.07;;;7.00;99.90;;;;;;4993471;28;20160;-95
2021/10/17 01:06:29;;;;;;;9.03;3.10;;;7.00;99.90;;;;;;4992485;28;20176;-95
2021/10/17 01:08:55;;;;;;;6.17;3.00;;;6.90;99.90;;;;;;4991556;28;20191;-95
2021/10/17 01:11:23;;;;;;;7.63;2.83;;;6.90;99.90;;;;;;4991620;28;20172;-95
2021/10/17 01:13:49;;;;;;;6.60;3.30;;;6.90;99.90;;;;;;4992631;28;20216;-95
2021/10/17 01:16:15;;;;;;;8.37;2.93;;;6.90;99.90;;;;;;4990788;28;20180;-95
2021/10/17 01:18:40;;;;;;;10.63;3.10;;;6.90;99.90;;;;;;4992545;28;20184;-96
2021/10/17 01:21:06;;;;;;;6.00;3.30;;;6.90;99.90;;;;;;4991334;28;20188;-96
2021/10/17 01:23:33;;;;;;;11.77;2.80;;;6.90;99.90;;;;;;4987465;28;20183;-95
2021/10/17 01:25:58;;;;;;;6.87;2.77;;;7.00;99.90;;;;;;4978362;28;20232;-95
2021/10/17 01:28:24;;;;;;;12.73;3.30;;;7.00;99.90;;;;;;4978539;28;20507;-96
2021/10/17 01:30:50;;;;;;;7.47;2.70;;;7.00;99.90;;;;;;4978876;28;20574;-95
2021/10/17 01:33:17;;;;;;;8.50;3.50;;;7.00;99.90;;;;;;4964703;28;20209;-95
2021/10/17 01:35:43;;;;;;;4.87;2.73;;;7.00;99.90;;;;;;4962774;28;20246;-96
2021/10/17 01:38:10;;;;;;;8.43;2.80;;;7.00;99.90;;;;;;4962852;28;20204;-95
2021/10/17 01:40:37;;;;;;;6.37;2.83;;;7.00;99.90;;;;;;4962726;28;20208;-95
2021/10/17 01:43:04;;;;;;;9.30;3.10;;;7.10;99.90;;;;;;4963576;28;20186;-96
2021/10/17 01:45:30;;;;;;;9.77;3.10;;;7.10;99.90;;;;;;4963744;28;20172;-96
2021/10/17 01:47:57;;;;;;;6.80;2.90;;;7.10;99.90;;;;;;4962960;28;20503;-95
2021/10/17 01:50:23;;;;;;;7.43;2.70;;;7.10;99.90;;;;;;4962148;28;20620;-95
2021/10/17 01:52:49;;;;;;;8.37;2.93;;;7.10;99.90;;;;;;4963250;28;20177;-95
2021/10/17 01:55:15;;;;;;;8.30;2.60;;;7.10;99.90;;;;;;4964573;28;20631;-95
2021/10/17 01:57:42;;;;;;;10.07;2.97;;;7.10;99.90;;;;;;4964590;28;20179;-95
2021/10/17 02:00:11;;;;;;;7.60;2.87;;;7.10;99.90;;;;;;4963756;28;20628;-95
2021/10/17 02:02:40;;;;;;;7.53;2.93;;;7.20;99.90;;;;;;4964529;28;20188;-95
2021/10/17 02:05:11;;;;;;;8.67;3.10;;;7.20;99.90;;;;;;5335248;23;20240;-94
2021/10/17 02:07:37;;;;;;;11.07;3.37;;;7.20;99.90;;;;;;4955864;29;20208;-95
2021/10/17 02:10:05;;;;;;;7.60;3.00;;;7.20;99.90;;;;;;4940195;29;20220;-94
2021/10/17 02:12:31;;;;;;;7.73;2.93;;;7.20;99.90;;;;;;4940710;29;20272;-95
2021/10/17 02:15:21;;;;;;;9.03;3.07;;;7.30;99.90;;;;;;4940790;29;20264;-94
2021/10/17 02:18:09;;;;;;;7.33;2.80;;;7.30;99.90;;;;;;4940592;29;20261;-96
2021/10/17 02:20:51;;;;;;;5.30;3.00;;;7.30;99.90;;;;;;4940761;29;20176;-94
2021/10/17 02:23:44;;;;;;;10.67;2.63;;;7.20;99.90;;;;;;4940096;29;20184;-95
2021/10/17 02:26:28;;;;;;;9.33;2.63;;;7.20;99.90;;;;;;4941263;29;20200;-96
2021/10/17 02:28:55;;;;;;;7.80;3.03;;;7.20;99.90;;;;;;4940066;29;20221;-95
2021/10/17 02:31:25;;;;;;;8.17;2.47;;;7.20;99.90;;;;;;4940077;29;20204;-94
2021/10/17 02:33:51;;;;;;;8.70;2.80;;;7.20;99.90;;;;;;4939999;29;20573;-96
2021/10/17 02:36:32;;;;;;;7.83;3.03;;;7.20;99.90;;;;;;4957495;29;20185;-96
2021/10/17 02:39:04;;;;;;;9.90;3.03;;;7.20;99.90;;;;;;4939507;29;20197;-94
2021/10/17 02:41:39;;;;;;;7.73;2.77;;;7.20;99.90;;;;;;4940187;29;20261;-95
2021/10/17 02:44:06;;;;;;;7.63;2.80;;;7.20;99.90;;;;;;4940505;29;20619;-94
2021/10/17 02:46:57;;;;;;;10.33;2.90;;;7.30;99.90;;;;;;4940092;29;20169;-95
2021/10/17 02:49:26;;;;;;;9.27;2.87;;;7.30;99.90;;;;;;4940679;29;20233;-95
2021/10/17 02:51:52;;;;;;;7.47;3.17;;;7.30;99.90;;;;;;4941867;29;20169;-96
2021/10/17 02:54:33;;;;;;;6.87;2.87;;;7.30;99.90;;;;;;4944434;29;20240;-95
2021/10/17 02:57:02;;;;;;;8.77;2.97;;;7.30;99.90;;;;;;4943732;29;20169;-95
2021/10/17 02:59:47;;;;;;;9.83;3.13;;;7.30;99.90;;;;;;4944080;29;20197;-95
2021/10/17 03:02:31;;;;;;;7.57;3.07;;;7.30;99.90;;;;;;4943665;29;20173;-94
2021/10/17 03:04:58;;;;;;;8.43;3.10;;;7.30;99.90;;;;;;4943235;29;20172;-95
2021/10/17 03:07:23;;;;;;;7.53;3.17;;;7.30;99.90;;;;;;4943078;28;20180;-94
2021/10/17 03:10:04;;;;;;;8.90;3.03;;;7.30;99.90;;;;;;4943286;29;20236;-95
2021/10/17 03:12:41;;;;;;;7.10;2.83;;;7.30;99.90;;;;;;4943497;29;20209;-95
2021/10/17 03:15:45;;;;;;;7.00;2.87;;;7.30;99.90;;;;;;4943113;29;20690;-96
2021/10/17 03:18:12;;;;;;;10.17;3.10;;;7.30;99.90;;;;;;4943579;29;20693;-94
2021/10/17 03:21:11;;;;;;;9.73;3.20;;;7.30;99.90;;;;;;4943911;29;20611;-96
2021/10/17 03:23:41;;;;;;;8.00;2.80;;;7.30;99.90;;;;;;4943378;29;20181;-95
2021/10/17 03:26:19;;;;;;;8.50;2.80;;;7.30;99.90;;;;;;4943284;29;20177;-95
2021/10/17 03:28:51;;;;;;;8.77;2.80;;;7.40;99.90;;;;;;4943082;29;20260;-95
2021/10/17 03:31:23;;;;;;;7.07;2.73;;;7.40;99.90;;;;;;4943057;29;20173;-96
2021/10/17 03:34:04;;;;;;;7.67;3.07;;;7.40;99.90;;;;;;4942597;29;20292;-96
2021/10/17 03:36:35;;;;;;;8.73;3.10;;;7.40;99.90;;;;;;4943244;29;20200;-95
2021/10/17 03:39:04;;;;;;;10.53;2.60;;;7.40;99.90;;;;;;4942749;29;20201;-94
2021/10/17 03:41:29;;;;;;;5.63;2.97;;;7.40;99.90;;;;;;4942281;29;20184;-93
2021/10/17 03:44:17;;;;;;;10.77;3.40;;;7.40;99.90;;;;;;4942257;29;20189;-95
2021/10/17 03:46:43;;;;;;;7.57;2.97;;;7.40;99.90;;;;;;4942155;29;20650;-94
2021/10/17 03:49:10;;;;;;;9.20;2.93;;;7.40;99.90;;;;;;4941977;29;20236;-95
2021/10/17 03:51:56;;;;;;;9.70;2.90;;;7.40;99.90;;;;;;4942151;29;20224;-94
2021/10/17 03:54:23;;;;;;;13.47;3.23;;;7.40;99.90;;;;;;4942363;29;20208;-95
2021/10/17 03:56:53;;;;;;;8.37;2.87;;;7.40;99.90;;;;;;4942439;29;20169;-95
2021/10/17 03:59:22;;;;;;;12.40;2.93;;;7.40;99.90;;;;;;4942274;29;20205;-95
2021/10/17 04:01:49;;;;;;;10.47;2.97;;;7.40;99.90;;;;;;4942081;28;20197;-95
2021/10/17 04:04:17;;;;;;;5.53;2.47;;;7.50;99.90;;;;;;4942289;29;20272;-96
2021/10/17 04:06:44;;;;;;;8.33;2.80;;;7.50;99.90;;;;;;4941962;29;20240;-94
2021/10/17 04:09:11;;;;;;;7.37;2.93;;;7.50;99.90;;;;;;4942312;29;20220;-94
2021/10/17 04:11:37;;;;;;;8.73;3.27;;;7.50;99.90;;;;;;4942724;29;20330;-96
2021/10/17 04:14:04;;;;;;;7.97;3.20;;;7.50;99.90;;;;;;4945564;29;20288;-96
2021/10/17 04:16:30;;;;;;;10.50;3.33;;;7.50;99.90;;;;;;4947176;29;20183;-94
2021/10/17 04:18:56;;;;;;;6.40;2.70;;;7.50;99.90;;;;;;4945394;29;20259;-96
2021/10/17 04:22:01;;;;;;;12.27;3.23;;;7.50;99.90;;;;;;4942701;29;20219;-94
2021/10/17 04:24:28;;;;;;;8.70;2.70;;;7.50;99.90;;;;;;4942636;29;20248;-95
2021/10/17 04:26:56;;;;;;;11.73;3.37;;;7.50;99.90;;;;;;4942131;29;20534;-94
2021/10/17 04:29:23;;;;;;;11.03;2.90;;;7.50;99.90;;;;;;4942170;29;20204;-94
2021/10/17 04:31:50;;;;;;;8.63;2.87;;;7.50;99.90;;;;;;4942023;29;20205;-94
2021/10/17 04:34:18;;;;;;;10.20;3.00;;;7.50;99.90;;;;;;4941971;29;20236;-95
2021/10/17 04:36:47;;;;;;;6.53;3.10;;;7.50;99.90;;;;;;4942107;29;20162;-93
2021/10/17 04:39:43;;;;;;;10.00;3.17;;;7.50;99.90;;;;;;4941563;29;20205;-94
2021/10/17 04:42:10;;;;;;;9.57;3.07;;;7.50;99.90;;;;;;4941785;29;20162;-94
2021/10/17 04:44:39;;;;;;;8.00;2.80;;;7.60;99.90;;;;;;4941432;29;20165;-95
2021/10/17 04:47:14;;;;;;;12.00;3.23;;;7.60;99.90;;;;;;4941955;29;20242;-95
2021/10/17 04:49:47;;;;;;;9.30;3.20;;;7.50;99.90;;;;;;4941890;29;20179;-94
2021/10/17 04:52:13;;;;;;;8.07;3.13;;;7.60;99.90;;;;;;4941415;29;20173;-94
2021/10/17 04:54:48;;;;;;;10.97;3.63;;;7.60;99.90;;;;;;4941292;29;20197;-96
2021/10/17 04:57:16;;;;;;;8.47;3.30;;;7.60;99.90;;;;;;4941516;28;20173;-95
2021/10/17 04:59:47;;;;;;;8.17;3.27;;;7.60;99.90;;;;;;4941764;29;20261;-95
2021/10/17 05:02:52;;;;;;;7.87;3.30;;;7.60;99.90;;;;;;4941357;29;20165;-95
2021/10/17 05:05:19;;;;;;;9.63;3.47;;;7.60;99.90;;;;;;4941228;29;20312;-94
2021/10/17 05:07:47;;;;;;;9.80;3.10;;;7.70;99.90;;;;;;4941757;29;20201;-95
2021/10/17 05:10:12;;;;;;;10.53;3.30;;;7.70;99.90;;;;;;4941505;29;20169;-94
2021/10/17 05:12:39;;;;;;;10.70;3.17;;;7.60;99.90;;;;;;4941031;29;20658;-94
2021/10/17 05:15:16;;;;;;;6.97;3.50;;;7.60;99.90;;;;;;4939876;29;20209;-94
2021/10/17 05:17:58;;;;;;;9.50;3.33;;;7.60;99.90;;;;;;4940684;29;20220;-95
2021/10/17 05:20:24;;;;;;;10.60;3.27;;;7.60;99.90;;;;;;4941331;29;20169;-94
2021/10/17 05:22:59;;;;;;;8.83;3.63;;;7.60;99.90;;;;;;4941271;29;20169;-94
2021/10/17 05:25:40;;;;;;;9.33;3.30;;;7.60;99.90;;;;;;4940856;29;20665;-95
2021/10/17 05:28:54;;;;;;;10.57;3.63;;;7.60;99.90;;;;;;4940856;29;20600;-94
2021/10/17 05:31:21;;;;;;;9.47;3.60;;;7.70;99.90;;;;;;4940736;29;20228;-96
2021/10/17 05:33:49;;;;;;;9.80;3.40;;;7.70;99.90;;;;;;4940410;29;20211;-94
2021/10/17 05:36:29;;;;;;;7.23;3.17;;;7.60;99.90;;;;;;4940458;29;20178;-95
2021/10/17 05:38:56;;;;;;;9.37;3.17;;;7.70;99.90;;;;;;4925032;29;20211;-95
2021/10/17 05:41:24;;;;;;;8.43;4.13;;;7.70;99.90;;;;;;4940468;29;20177;-95
2021/10/17 05:43:52;;;;;;;8.90;3.40;;;7.70;99.90;;;;;;4940638;29;20261;-94
2021/10/17 05:46:26;;;;;;;11.13;3.63;;;7.70;99.90;;;;;;4941031;29;20268;-95
2021/10/17 05:48:54;;;;;;;8.87;3.37;;;7.70;99.90;;;;;;4940677;29;20232;-94
2021/10/17 05:51:25;;;;;;;11.60;3.60;;;7.70;99.90;;;;;;4940387;29;20248;-95
2021/10/17 05:54:03;;;;;;;11.10;3.17;;;7.70;99.90;;;;;;4940255;29;20201;-94
2021/10/17 05:56:31;;;;;;;9.40;3.23;;;7.70;99.90;;;;;;4940205;29;20224;-95
2021/10/17 05:58:59;;;;;;;11.50;3.93;;;7.70;99.90;;;;;;4939920;29;20205;-94
2021/10/17 06:01:29;;;;;;;13.10;3.73;;;7.80;99.90;;;;;;4940210;29;20178;-94
2021/10/17 06:04:30;;;;;;;12.40;3.90;;;7.80;99.90;;;;;;4939865;29;20185;-94
2021/10/17 06:07:11;;;;;;;11.50;3.93;;;7.80;99.90;;;;;;4939691;29;20721;-94
2021/10/17 06:09:55;;;;;;;9.40;3.30;;;7.80;99.90;;;;;;4940385;29;20183;-94
2021/10/17 06:12:45;;;;;;;11.50;3.47;;;7.80;99.90;;;;;;4939538;29;20177;-94
2021/10/17 06:15:11;;;;;;;10.93;4.17;;;7.80;99.90;;;;;;4939926;29;20343;-96
2021/10/17 06:17:48;;;;;;;12.83;4.60;;;7.80;99.90;;;;;;4940052;29;20208;-95
2021/10/17 06:20:16;;;;;;;12.70;4.30;;;7.80;99.90;;;;;;4940081;29;20193;-94
2021/10/17 06:22:44;;;;;;;8.23;3.90;;;7.80;99.90;;;;;;4940018;29;20161;-94
2021/10/17 06:25:12;;;;;;;8.83;3.73;;;7.80;99.90;;;;;;4939289;28;20174;-95
2021/10/17 06:27:40;;;;;;;9.77;3.57;;;7.90;99.90;;;;;;4939784;29;20205;-94
2021/10/17 06:30:07;;;;;;;9.27;3.60;;;7.90;99.90;;;;;;4940057;29;20169;-95
2021/10/17 06:32:36;;;;;;;9.97;3.47;;;7.90;99.90;;;;;;4939609;29;20176;-94
2021/10/17 06:35:13;;;;;;;11.90;3.23;;;7.90;99.90;;;;;;4939726;29;20197;-96
2021/10/17 06:37:57;;;;;;;10.87;3.40;;;8.00;99.90;;;;;;4939531;29;20200;-95
2021/10/17 06:40:27;;;;;;;8.37;3.37;;;7.90;99.90;;;;;;4939610;29;20165;-95
2021/10/17 06:43:12;;;;;;;8.60;3.70;;;7.90;99.90;;;;;;4938942;29;20169;-94
2021/10/17 06:45:40;;;;;;;12.93;3.87;;;8.00;99.90;;;;;;4938749;29;20180;-93
2021/10/17 06:48:14;;;;;;;9.50;3.50;;;8.00;99.90;;;;;;4939297;29;20211;-94
2021/10/17 06:51:00;;;;;;;12.10;3.77;;;8.00;99.90;;;;;;4938926;29;20261;-94
2021/10/17 06:53:26;;;;;;;10.33;3.80;;;8.00;99.90;;;;;;4938889;29;20623;-94
2021/10/17 06:55:53;;;;;;;9.40;3.87;;;8.10;99.90;;;;;;4938734;29;20173;-94
2021/10/17 06:58:24;;;;;;;16.23;4.33;;;8.10;99.90;;;;;;4939108;29;20216;-95
2021/10/17 07:00:53;;;;;;;9.40;3.40;;;8.10;99.90;;;;;;4938823;29;20244;-94
2021/10/17 07:03:57;;;;;;;9.33;3.87;;;8.10;99.90;;;;;;4938942;29;20254;-93
2021/10/17 07:06:23;;;;;;;8.13;3.37;;;8.20;99.90;;;;;;4938308;29;20220;-95
2021/10/17 07:08:49;;;;;;;10.90;3.83;;;8.20;99.90;;;;;;4938610;29;20201;-94
2021/10/17 07:11:15;;;;;;;9.93;3.70;;;8.20;99.90;;;;;;4938755;29;20184;-94
2021/10/17 07:13:42;;;;;;;9.77;4.10;;;8.20;99.90;;;;;;4938847;29;20210;-94
2021/10/17 07:16:07;;;;;;;10.50;3.67;;;8.20;99.90;;;;;;4938764;29;20177;-93
2021/10/17 07:18:35;;;;;;;11.50;4.10;;;8.30;99.90;;;;;;4938659;29;20193;-93
2021/10/17 07:21:01;;;;;;;11.63;3.37;;;8.30;99.90;;;;;;4938888;29;20174;-94
2021/10/17 07:23:31;;;;;;;9.70;3.27;;;8.30;99.90;;;;;;4938576;29;20244;-94
2021/10/17 07:26:06;;;;;;;7.23;3.27;;;8.40;99.90;;;;;;4938758;29;20173;-94
2021/10/17 07:28:32;;;;;;;9.20;3.30;;;8.40;99.90;;;;;;4938594;29;20223;-94
2021/10/17 07:31:08;;;;;;;9.03;4.10;;;8.50;99.90;;;;;;4938485;29;20174;-94
2021/10/17 07:33:37;;;;;;;12.10;4.47;;;8.50;99.90;;;;;;4939634;29;20197;-95
2021/10/17 07:36:06;;;;;;;10.90;3.87;;;8.60;99.90;;;;;;4940468;29;20205;-95
2021/10/17 07:38:46;;;;;;;10.73;3.50;;;8.60;99.90;;;;;;4942489;29;20207;-95
2021/10/17 07:41:14;;;;;;;10.83;3.43;;;8.70;99.90;;;;;;4944964;29;20176;-93
2021/10/17 07:43:54;;;;;;;9.07;3.90;;;8.70;99.90;;;;;;4943058;29;20195;-94
2021/10/17 07:46:38;;;;;;;9.90;3.70;;;8.80;99.90;;;;;;4942441;29;20173;-93
2021/10/17 07:49:04;;;;;;;8.47;3.20;;;8.80;99.90;;;;;;4943389;29;20288;-95
2021/10/17 07:51:34;;;;;;;11.33;3.40;;;8.80;99.90;;;;;;4942417;29;20260;-93
2021/10/17 07:54:01;;;;;;;11.40;3.50;;;8.90;99.90;;;;;;4942309;29;20201;-95
2021/10/17 07:56:29;;;;;;;11.17;3.67;;;8.90;99.90;;;;;;4941929;29;20661;-95
2021/10/17 07:59:04;;;;;;;8.80;3.50;;;9.00;99.90;;;;;;4942500;29;20204;-95
2021/10/17 08:01:37;;;;;;;10.30;3.27;;;9.00;99.90;;;;;;4942328;29;20173;-94
2021/10/17 08:04:10;;;;;;;13.50;3.60;;;9.00;99.90;;;;;;4931588;29;20201;-93
2021/10/17 08:06:40;;;;;;;16.07;4.13;;;9.10;99.90;;;;;;4941208;29;20224;-94
2021/10/17 08:09:06;;;;;;;14.57;3.20;;;9.10;99.90;;;;;;4941526;29;20208;-95
2021/10/17 08:11:54;;;;;;;9.47;3.40;;;9.10;99.90;;;;;;4941294;29;20250;-93
2021/10/17 08:14:47;;;;;;;9.67;3.60;;;9.00;99.90;;;;;;4942471;29;20202;-95
2021/10/17 08:17:15;;;;;;;13.00;4.23;;;9.10;99.90;;;;;;4942093;28;20680;-95
2021/10/17 08:19:44;;;;;;;11.07;3.63;;;9.00;99.90;;;;;;4943536;29;20172;-93
2021/10/17 08:22:10;;;;;;;7.90;3.53;;;9.00;99.90;;;;;;4942746;29;20169;-94
2021/10/17 08:24:37;;;;;;;7.33;2.97;;;9.00;99.90;;;;;;4942704;29;20177;-94
2021/10/17 08:27:10;;;;;;;8.40;3.50;;;9.10;99.90;;;;;;4942060;29;20187;-94
2021/10/17 08:29:36;;;;;;;11.60;3.10;;;9.10;99.90;;;;;;4942457;29;20180;-95
2021/10/17 08:32:03;;;;;;;8.03;3.73;;;9.20;99.90;;;;;;4941959;29;20260;-95
2021/10/17 08:34:39;;;;;;;10.43;3.60;;;9.20;99.90;;;;;;4943018;29;20201;-95
2021/10/17 08:37:13;;;;;;;11.03;3.30;;;9.30;99.90;;;;;;4942797;29;20169;-95
2021/10/17 08:39:49;;;;;;;9.10;3.40;;;9.30;99.90;;;;;;4943027;29;20193;-93
2021/10/17 08:42:37;;;;;;;8.07;3.13;;;9.40;99.90;;;;;;4942922;29;20173;-95
2021/10/17 08:45:06;;;;;;;7.87;3.17;;;9.40;99.90;;;;;;4942052;29;20228;-95
2021/10/17 08:47:38;;;;;;;12.33;3.63;;;9.50;99.90;;;;;;4941725;28;20252;-94
2021/10/17 08:50:07;;;;;;;9.53;3.10;;;9.60;99.90;;;;;;4939969;29;20182;-93
2021/10/17 08:52:34;;;;;;;10.67;3.10;;;9.60;99.90;;;;;;4942127;29;20161;-94
2021/10/17 08:55:18;;;;;;;11.77;3.40;;;9.60;99.90;;;;;;4940809;29;20201;-93
2021/10/17 08:57:46;;;;;;;8.93;3.30;;;9.60;99.90;;;;;;4925303;29;20277;-92
2021/10/17 09:00:32;;;;;;;12.77;4.23;;;9.70;99.90;;;;;;4941257;29;20211;-95
2021/10/17 09:03:03;;;;;;;11.73;3.53;;;9.80;99.90;;;;;;4943085;29;20189;-95
2021/10/17 09:05:43;;;;;;;10.77;2.97;;;9.80;99.90;;;;;;4943497;29;20173;-95
2021/10/17 09:08:14;;;;;;;13.82;3.78;;;9.80;99.90;;;;;;4941697;29;20205;-95
2021/10/17 09:10:57;;;;;;;10.25;3.45;;;9.80;99.90;;;;;;4941535;29;20181;-95
2021/10/17 09:14:08;;;;;;;6.83;3.20;;;9.90;99.90;;;;;;4942071;29;20177;-94
2021/10/17 09:16:36;;;;;;;6.70;2.95;;;9.80;99.90;;;;;;4943077;29;20217;-96
2021/10/17 09:19:23;;;;;;;6.60;2.77;;;9.80;99.90;;;;;;4943843;29;20201;-96
2021/10/17 09:22:06;;;;;;;7.40;3.27;;;9.80;99.90;;;;;;4943092;29;20268;-95
2021/10/17 09:24:35;;;;;;;9.53;3.70;;;9.80;99.90;;;;;;4942770;29;20312;-95
2021/10/17 09:27:26;;;;;;;9.68;3.38;;;9.90;99.90;;;;;;4941885;29;20190;-93
2021/10/17 09:29:55;;;;;;;12.83;3.40;;;9.90;99.90;;;;;;4942546;29;20181;-95
2021/10/17 09:32:28;;;;;;;9.90;3.88;;;9.90;99.90;;;;;;4942565;29;20561;-94
2021/10/17 09:35:10;;;;;;;9.50;3.57;;;10.00;99.90;;;;;;4941642;29;20201;-96
2021/10/17 09:37:48;;;;;;;14.02;3.50;;;10.00;99.90;;;;;;4940689;29;20224;-96
2021/10/17 09:43:10;;;;;;;12.27;3.67;;;10.10;99.90;;;;;;4957662;29;20236;-96
2021/10/17 09:45:36;;;;;;;11.90;4.07;;;10.10;99.90;;;;;;4940811;29;20687;-95
2021/10/17 09:48:10;;;;;;;16.38;4.22;;;10.20;99.90;;;;;;4941204;29;20667;-95
2021/10/17 09:54:20;;;;;;;8.98;3.47;;;10.20;99.90;;;;;;4957699;29;20261;-95
2021/10/17 09:56:54;;;;;;;15.40;3.97;;;10.20;99.90;;;;;;4940708;29;20648;-94
2021/10/17 09:59:21;;;;;;;13.13;3.40;;;10.30;99.90;;;;;;4941464;29;20694;-95
2021/10/17 10:02:15;;;;;;;11.52;4.10;;;10.30;99.90;;;;;;4939655;29;20182;-96
2021/10/17 10:04:55;;;;;;;9.30;3.40;;;10.30;99.90;;;;;;4941072;29;20204;-95
2021/10/17 10:07:27;;;;;;;11.57;3.67;;;10.30;99.90;;;;;;4940979;28;20231;-95
2021/10/17 10:10:04;;;;;;;8.15;3.47;;;10.40;99.90;;;;;;4940443;29;20197;-95
2021/10/17 10:12:31;;;;;;;11.50;3.40;;;10.50;99.90;;;;;;4942262;29;20268;-94
2021/10/17 10:14:59;;;;;;;8.68;3.72;;;10.50;99.90;;;;;;4959522;29;20212;-95
2021/10/17 10:17:31;;;;;;;9.45;3.58;;;10.50;99.90;;;;;;4927086;28;20185;-96
2021/10/17 10:20:02;;;;;;;12.82;3.30;;;10.50;99.90;;;;;;4942152;29;20170;-96
2021/10/17 10:22:32;;;;;;;7.07;3.17;;;10.50;99.90;;;;;;4941854;29;20602;-95
2021/10/17 10:25:09;;;;;;;14.00;3.67;;;10.60;99.90;;;;;;4941325;29;20177;-95
2021/10/17 10:27:40;;;;;;;9.80;3.40;;;10.70;99.90;;;;;;4940855;29;20232;-95
2021/10/17 10:30:34;;;;;;;9.13;3.03;;;10.70;99.90;;;;;;4939972;29;20173;-95
2021/10/17 10:33:18;;;;;;;12.63;3.70;;;10.80;99.90;;;;;;4939253;29;20187;-94
2021/10/17 10:36:13;;;;;;;12.68;3.38;;;10.80;99.90;;;;;;4940558;29;20173;-95
2021/10/17 10:38:59;;;;;;;10.93;3.40;;;10.80;99.90;;;;;;4940696;29;20220;-95
2021/10/17 10:41:49;;;;;;;12.05;3.08;;;10.90;99.90;;;;;;4940007;29;20324;-96
2021/10/17 10:44:40;;;;;;;7.18;2.80;;;11.00;99.90;;;;;;4939562;29;20177;-93
2021/10/17 10:47:47;;;;;;;9.77;3.80;;;11.10;99.90;;;;;;4940740;29;20173;-95
2021/10/17 10:50:55;;;;;;;10.15;3.13;;;11.20;99.90;;;;;;4940543;29;20257;-93
2021/10/17 10:57:04;;;;;;;15.00;3.75;;;11.30;99.90;;;;;;4956750;29;20169;-94
2021/10/17 11:00:28;;;;;;;7.22;3.00;;;11.40;99.90;;;;;;4939692;29;20667;-95
2021/10/17 11:03:14;;;;;;;9.93;3.30;;;11.50;99.90;;;;;;4954959;29;20182;-94
2021/10/17 11:09:24;;;;;;;9.00;2.97;;;11.70;99.90;;;;;;4956215;28;20251;-96
2021/10/17 11:11:56;;;;;;;10.48;3.25;;;11.70;99.90;;;;;;4939174;29;20181;-95
2021/10/17 11:14:30;;;;;;;8.73;3.25;;;11.70;99.90;;;;;;4941847;29;20213;-95
2021/10/17 11:17:06;;;;;;;8.23;3.22;;;11.70;99.90;;;;;;4943328;29;20176;-95
2021/10/17 11:19:35;;;;;;;7.03;3.03;;;11.70;99.90;;;;;;4943189;29;20256;-94
2021/10/17 12:19:08;;;;;;;12.38;3.65;;;11.60;99.90;;;;;;5088372;28;20938;-95
2021/10/17 12:21:40;;;;;;;11.13;3.10;;;11.80;99.90;;;;;;5071147;28;20173;-95
2021/10/17 12:24:09;;;;;;;9.77;3.28;;;11.80;99.90;;;;;;5072572;28;20165;-96
2021/10/17 12:26:53;;;;;;;11.00;3.08;;;11.80;99.90;;;;;;5071723;28;20171;-96
2021/10/17 12:29:29;;;;;;;12.45;3.55;;;11.80;99.90;;;;;;5070980;28;20175;-95
2021/10/17 12:31:58;;;;;;;5.50;2.70;;;11.90;99.90;;;;;;5070646;28;20218;-94
2021/10/17 12:34:48;;;;;;;9.63;3.60;;;11.90;99.90;;;;;;5070097;28;20162;-95
2021/10/17 12:37:19;;;;;;;12.82;2.70;;;11.90;99.90;;;;;;5070025;28;20225;-96
2021/10/17 12:39:46;;;;;;;8.93;2.90;;;11.80;99.90;;;;;;5070442;28;20650;-92
2021/10/17 12:42:12;;;;;;;9.88;2.78;;;11.90;99.90;;;;;;5070132;28;20190;-95
2021/10/17 12:44:56;;;;;;;9.75;2.85;;;11.90;99.90;;;;;;5070192;28;20654;-95
2021/10/17 12:47:23;;;;;;;8.77;2.95;;;11.90;99.90;;;;;;5070084;28;20205;-95
2021/10/17 12:49:49;;;;;;;9.35;2.92;;;11.90;99.90;;;;;;5053641;28;20740;-95
2021/10/17 12:52:33;;;;;;;12.70;3.47;;;11.90;99.90;;;;;;5070297;28;20189;-96
2021/10/17 12:55:10;;;;;;;10.13;2.88;;;11.90;99.90;;;;;;5053393;28;20188;-96
2021/10/17 12:57:38;;;;;;;6.60;3.05;;;11.90;99.90;;;;;;5069463;28;20240;-94
2021/10/17 13:00:09;;;;;;;9.30;3.25;;;11.90;99.90;;;;;;5069530;28;20185;-94
2021/10/17 13:02:41;;;;;;;12.57;3.30;;;11.90;99.90;;;;;;5070009;28;20231;-93
2021/10/17 13:05:18;;;;;;;7.93;3.03;;;11.90;99.90;;;;;;5069465;28;20170;-95
2021/10/17 13:07:48;;;;;;;9.85;2.88;;;11.90;99.90;;;;;;5069781;28;20193;-95
2021/10/17 13:10:22;;;;;;;4.82;2.50;;;11.90;99.90;;;;;;5069280;28;20646;-94
2021/10/17 13:13:03;;;;;;;11.40;2.95;;;11.90;99.90;;;;;;5069334;28;20211;-95
2021/10/17 13:15:31;;;;;;;12.45;3.17;;;11.90;99.90;;;;;;5069152;28;20201;-96
2021/10/17 13:18:00;;;;;;;10.93;2.92;;;11.90;99.90;;;;;;5077856;28;20236;-95
2021/10/17 13:20:28;;;;;;;13.38;2.92;;;11.90;99.90;;;;;;5076551;28;20165;-94
2021/10/17 13:23:20;;;;;;;5.90;2.97;;;11.90;99.90;;;;;;5076467;28;20169;-94
2021/10/17 13:26:07;;;;;;;9.93;3.03;;;11.90;99.90;;;;;;5076343;28;20162;-94
2021/10/17 13:28:34;;;;;;;9.45;2.97;;;11.90;99.90;;;;;;5076034;28;20280;-94
2021/10/17 13:31:00;;;;;;;11.10;3.25;;;11.80;99.90;;;;;;5075437;28;20169;-96
2021/10/17 13:33:29;;;;;;;8.63;2.95;;;11.80;99.90;;;;;;5075841;28;20213;-95
2021/10/17 13:36:03;;;;;;;7.57;2.85;;;11.80;99.90;;;;;;5075779;28;20193;-96
2021/10/17 13:38:37;;;;;;;5.40;2.75;;;11.70;99.90;;;;;;5075952;28;20307;-93
2021/10/17 13:41:15;;;;;;;7.10;2.85;;;11.70;99.90;;;;;;5075492;28;20173;-94
2021/10/17 13:43:49;;;;;;;12.73;3.33;;;11.70;99.90;;;;;;5075571;28;20176;-94
2021/10/17 13:46:15;;;;;;;11.95;3.25;;;11.70;99.90;;;;;;5058925;28;20174;-94
2021/10/17 13:48:41;;;;;;;8.63;3.30;;;11.70;99.90;;;;;;5075671;28;20239;-94
2021/10/17 13:51:10;;;;;;;12.60;3.60;;;11.60;99.90;;;;;;5072920;28;20219;-96
2021/10/17 13:53:36;;;;;;;18.90;3.35;;;11.60;99.90;;;;;;5073968;28;20169;-95
2021/10/17 13:56:02;;;;;;;8.02;2.95;;;11.60;99.90;;;;;;5074997;28;20188;-94
2021/10/17 13:58:30;;;;;;;11.30;3.47;;;11.60;99.90;;;;;;5074804;28;20205;-94
2021/10/17 14:00:57;;;;;;;11.07;3.00;;;11.60;99.90;;;;;;5075230;28;20652;-93
2021/10/17 14:03:27;;;;;;;13.77;3.30;;;11.60;99.90;;;;;;5075196;28;20180;-96
2021/10/17 14:06:25;;;;;;;9.38;3.22;;;11.60;99.90;;;;;;5074973;28;20165;-96
2021/10/17 14:09:00;;;;;;;6.63;2.92;;;11.50;99.90;;;;;;5074786;28;20231;-95
2021/10/17 14:11:36;;;;;;;11.48;3.83;;;11.50;99.90;;;;;;5075007;28;20176;-96
2021/10/17 14:14:03;;;;;;;8.82;3.15;;;11.60;99.90;;;;;;5074945;28;20236;-94
2021/10/17 14:16:30;;;;;;;9.18;2.88;;;11.60;99.90;;;;;;5074706;28;20677;-96
2021/10/17 14:19:11;;;;;;;11.65;3.05;;;11.50;99.90;;;;;;5074849;28;20205;-93
2021/10/17 14:21:49;;;;;;;11.50;3.38;;;11.50;99.90;;;;;;5074828;28;20161;-94
2021/10/17 14:24:24;;;;;;;9.80;3.45;;;11.50;99.90;;;;;;5075054;28;20256;-95
2021/10/17 14:26:57;;;;;;;9.85;3.30;;;11.50;99.90;;;;;;5074567;28;20176;-95
2021/10/17 14:29:24;;;;;;;10.60;3.50;;;11.50;99.90;;;;;;5074460;28;20262;-94
2021/10/17 14:32:07;;;;;;;9.73;3.33;;;11.50;99.90;;;;;;5073922;28;20176;-95